sensor_id;sensor_type;location;lat;lon;timestamp;P1;durP1;ratioP1;P2;durP2;ratioP2
37001;SDS011;22913;51.910;8.374;2022-11-23T00:01:54;2.00;;;1.57;;
37001;SDS011;22913;51.910;8.374;2022-11-23T00:04:40;3.57;;;1.57;;
37001;SDS011;22913;51.910;8.374;2022-11-23T00:07:25;1.37;;;1.27;;
37001;SDS011;22913;51.910;8.374;2022-11-23T00:10:11;3.60;;;1.80;;
37001;SDS011;22913;51.910;8.374;2022-11-23T00:12:57;2.00;;;1.40;;
37001;SDS011;22913;51.910;8.374;2022-11-23T00:15:44;1.67;;;1.37;;
37001;SDS011;22913;51.910;8.374;2022-11-23T00:18:30;2.93;;;1.53;;
37001;SDS011;22913;51.910;8.374;2022-11-23T00:21:16;2.00;;;1.80;;
37001;SDS011;22913;51.910;8.374;2022-11-23T00:24:03;2.37;;;1.30;;
37001;SDS011;22913;51.910;8.374;2022-11-23T00:26:49;1.57;;;1.47;;
37001;SDS011;22913;51.910;8.374;2022-11-23T00:29:35;4.23;;;1.97;;
37001;SDS011;22913;51.910;8.374;2022-11-23T00:32:22;3.13;;;1.57;;
37001;SDS011;22913;51.910;8.374;2022-11-23T00:35:07;1.63;;;1.40;;
37001;SDS011;22913;51.910;8.374;2022-11-23T00:37:53;1.60;;;1.43;;
37001;SDS011;22913;51.910;8.374;2022-11-23T00:40:39;2.27;;;1.80;;
37001;SDS011;22913;51.910;8.374;2022-11-23T00:43:25;3.37;;;2.03;;
37001;SDS011;22913;51.910;8.374;2022-11-23T00:46:12;2.53;;;1.70;;
37001;SDS011;22913;51.910;8.374;2022-11-23T00:49:00;2.90;;;1.70;;
37001;SDS011;22913;51.910;8.374;2022-11-23T00:51:47;2.13;;;1.70;;
37001;SDS011;22913;51.910;8.374;2022-11-23T00:54:32;3.00;;;1.60;;
37001;SDS011;22913;51.910;8.374;2022-11-23T00:57:18;3.37;;;1.50;;
37001;SDS011;22913;51.910;8.374;2022-11-23T01:00:04;5.47;;;1.63;;
37001;SDS011;22913;51.910;8.374;2022-11-23T01:02:51;6.27;;;2.17;;
37001;SDS011;22913;51.910;8.374;2022-11-23T01:05:38;6.07;;;2.13;;
37001;SDS011;22913;51.910;8.374;2022-11-23T01:08:24;3.83;;;1.60;;
37001;SDS011;22913;51.910;8.374;2022-11-23T01:11:11;3.03;;;1.90;;
37001;SDS011;22913;51.910;8.374;2022-11-23T01:13:57;2.30;;;1.73;;
37001;SDS011;22913;51.910;8.374;2022-11-23T01:16:43;4.50;;;1.73;;
37001;SDS011;22913;51.910;8.374;2022-11-23T01:19:29;3.90;;;1.83;;
37001;SDS011;22913;51.910;8.374;2022-11-23T01:22:16;3.93;;;1.90;;
37001;SDS011;22913;51.910;8.374;2022-11-23T01:25:03;5.93;;;2.20;;
37001;SDS011;22913;51.910;8.374;2022-11-23T01:27:49;3.30;;;1.60;;
37001;SDS011;22913;51.910;8.374;2022-11-23T01:30:35;4.07;;;1.80;;
37001;SDS011;22913;51.910;8.374;2022-11-23T01:33:20;4.77;;;1.70;;
37001;SDS011;22913;51.910;8.374;2022-11-23T01:36:10;6.13;;;1.90;;
37001;SDS011;22913;51.910;8.374;2022-11-23T01:38:58;4.00;;;1.77;;
37001;SDS011;22913;51.910;8.374;2022-11-23T01:41:45;2.63;;;1.60;;
37001;SDS011;22913;51.910;8.374;2022-11-23T01:44:32;7.17;;;2.10;;
37001;SDS011;22913;51.910;8.374;2022-11-23T01:47:19;6.73;;;2.07;;
37001;SDS011;22913;51.910;8.374;2022-11-23T01:50:04;6.13;;;1.93;;
37001;SDS011;22913;51.910;8.374;2022-11-23T01:52:51;4.47;;;1.50;;
37001;SDS011;22913;51.910;8.374;2022-11-23T01:55:38;4.03;;;1.70;;
37001;SDS011;22913;51.910;8.374;2022-11-23T01:58:25;4.33;;;1.57;;
37001;SDS011;22913;51.910;8.374;2022-11-23T02:01:12;4.83;;;1.63;;
37001;SDS011;22913;51.910;8.374;2022-11-23T02:03:59;4.47;;;1.67;;
37001;SDS011;22913;51.910;8.374;2022-11-23T02:06:46;1.63;;;1.50;;
37001;SDS011;22913;51.910;8.374;2022-11-23T02:09:32;2.97;;;1.60;;
37001;SDS011;22913;51.910;8.374;2022-11-23T02:12:21;6.83;;;1.77;;
37001;SDS011;22913;51.910;8.374;2022-11-23T02:15:07;5.03;;;1.80;;
37001;SDS011;22913;51.910;8.374;2022-11-23T02:17:53;3.10;;;1.60;;
37001;SDS011;22913;51.910;8.374;2022-11-23T02:20:41;4.43;;;2.00;;
37001;SDS011;22913;51.910;8.374;2022-11-23T02:23:31;1.80;;;1.13;;
37001;SDS011;22913;51.910;8.374;2022-11-23T02:26:23;3.63;;;1.67;;
37001;SDS011;22913;51.910;8.374;2022-11-23T02:29:12;5.20;;;1.60;;
37001;SDS011;22913;51.910;8.374;2022-11-23T02:32:05;3.00;;;1.80;;
37001;SDS011;22913;51.910;8.374;2022-11-23T02:34:51;3.60;;;1.50;;
37001;SDS011;22913;51.910;8.374;2022-11-23T02:37:36;2.30;;;1.60;;
37001;SDS011;22913;51.910;8.374;2022-11-23T02:40:24;2.50;;;1.57;;
37001;SDS011;22913;51.910;8.374;2022-11-23T02:43:14;3.33;;;1.50;;
37001;SDS011;22913;51.910;8.374;2022-11-23T02:46:00;2.97;;;1.63;;
37001;SDS011;22913;51.910;8.374;2022-11-23T02:48:48;5.90;;;1.67;;
37001;SDS011;22913;51.910;8.374;2022-11-23T02:51:33;3.17;;;1.70;;
37001;SDS011;22913;51.910;8.374;2022-11-23T02:54:18;1.90;;;1.20;;
37001;SDS011;22913;51.910;8.374;2022-11-23T02:57:04;4.27;;;1.57;;
37001;SDS011;22913;51.910;8.374;2022-11-23T02:59:52;4.63;;;1.43;;
37001;SDS011;22913;51.910;8.374;2022-11-23T03:02:38;5.07;;;1.63;;
37001;SDS011;22913;51.910;8.374;2022-11-23T03:05:23;3.73;;;1.60;;
37001;SDS011;22913;51.910;8.374;2022-11-23T03:08:09;2.33;;;1.50;;
37001;SDS011;22913;51.910;8.374;2022-11-23T03:10:55;2.87;;;1.50;;
37001;SDS011;22913;51.910;8.374;2022-11-23T03:13:41;4.17;;;1.67;;
37001;SDS011;22913;51.910;8.374;2022-11-23T03:16:28;5.07;;;1.40;;
37001;SDS011;22913;51.910;8.374;2022-11-23T03:19:16;4.47;;;1.97;;
37001;SDS011;22913;51.910;8.374;2022-11-23T03:22:02;4.07;;;1.53;;
37001;SDS011;22913;51.910;8.374;2022-11-23T03:24:47;3.03;;;1.80;;
37001;SDS011;22913;51.910;8.374;2022-11-23T03:27:33;5.97;;;2.03;;
37001;SDS011;22913;51.910;8.374;2022-11-23T03:30:18;4.23;;;1.40;;
37001;SDS011;22913;51.910;8.374;2022-11-23T03:33:06;2.83;;;1.70;;
37001;SDS011;22913;51.910;8.374;2022-11-23T03:35:51;4.00;;;1.87;;
37001;SDS011;22913;51.910;8.374;2022-11-23T03:38:37;1.93;;;1.43;;
37001;SDS011;22913;51.910;8.374;2022-11-23T03:41:22;6.17;;;2.00;;
37001;SDS011;22913;51.910;8.374;2022-11-23T03:44:08;4.00;;;1.73;;
37001;SDS011;22913;51.910;8.374;2022-11-23T03:46:55;4.53;;;1.83;;
37001;SDS011;22913;51.910;8.374;2022-11-23T03:49:43;4.27;;;1.60;;
37001;SDS011;22913;51.910;8.374;2022-11-23T03:52:32;3.93;;;1.63;;
37001;SDS011;22913;51.910;8.374;2022-11-23T03:55:18;6.13;;;2.07;;
37001;SDS011;22913;51.910;8.374;2022-11-23T03:58:03;7.23;;;2.47;;
37001;SDS011;22913;51.910;8.374;2022-11-23T04:00:49;4.63;;;1.80;;
37001;SDS011;22913;51.910;8.374;2022-11-23T04:03:35;2.30;;;1.57;;
37001;SDS011;22913;51.910;8.374;2022-11-23T04:06:22;5.27;;;1.70;;
37001;SDS011;22913;51.910;8.374;2022-11-23T04:09:08;3.60;;;1.73;;
37001;SDS011;22913;51.910;8.374;2022-11-23T04:11:55;6.70;;;1.70;;
37001;SDS011;22913;51.910;8.374;2022-11-23T04:14:41;4.53;;;1.70;;
37001;SDS011;22913;51.910;8.374;2022-11-23T04:17:27;5.23;;;1.50;;
37001;SDS011;22913;51.910;8.374;2022-11-23T04:20:12;4.27;;;1.80;;
37001;SDS011;22913;51.910;8.374;2022-11-23T04:23:00;3.93;;;2.10;;
37001;SDS011;22913;51.910;8.374;2022-11-23T04:25:45;4.40;;;1.80;;
37001;SDS011;22913;51.910;8.374;2022-11-23T04:28:31;4.37;;;1.80;;
37001;SDS011;22913;51.910;8.374;2022-11-23T04:31:17;2.90;;;1.90;;
37001;SDS011;22913;51.910;8.374;2022-11-23T04:34:02;2.37;;;1.70;;
37001;SDS011;22913;51.910;8.374;2022-11-23T04:36:54;3.60;;;1.80;;
37001;SDS011;22913;51.910;8.374;2022-11-23T04:39:41;6.03;;;1.70;;
37001;SDS011;22913;51.910;8.374;2022-11-23T04:42:27;5.07;;;1.50;;
37001;SDS011;22913;51.910;8.374;2022-11-23T04:45:13;6.30;;;1.93;;
37001;SDS011;22913;51.910;8.374;2022-11-23T04:47:59;6.30;;;1.77;;
37001;SDS011;22913;51.910;8.374;2022-11-23T04:50:45;3.87;;;1.57;;
37001;SDS011;22913;51.910;8.374;2022-11-23T04:53:30;7.27;;;2.20;;
37001;SDS011;22913;51.910;8.374;2022-11-23T04:56:17;2.90;;;1.70;;
37001;SDS011;22913;51.910;8.374;2022-11-23T04:59:02;3.40;;;1.60;;
37001;SDS011;22913;51.910;8.374;2022-11-23T05:01:48;5.97;;;1.93;;
37001;SDS011;22913;51.910;8.374;2022-11-23T05:04:34;4.47;;;1.50;;
37001;SDS011;22913;51.910;8.374;2022-11-23T05:07:20;4.80;;;1.47;;
37001;SDS011;22913;51.910;8.374;2022-11-23T05:10:07;5.63;;;1.70;;
37001;SDS011;22913;51.910;8.374;2022-11-23T05:12:54;3.80;;;1.80;;
37001;SDS011;22913;51.910;8.374;2022-11-23T05:15:40;3.73;;;1.60;;
37001;SDS011;22913;51.910;8.374;2022-11-23T05:18:26;3.10;;;1.50;;
37001;SDS011;22913;51.910;8.374;2022-11-23T05:21:11;5.27;;;1.90;;
37001;SDS011;22913;51.910;8.374;2022-11-23T05:23:57;3.60;;;1.67;;
37001;SDS011;22913;51.910;8.374;2022-11-23T05:26:43;2.53;;;1.30;;
37001;SDS011;22913;51.910;8.374;2022-11-23T05:29:30;2.43;;;1.50;;
37001;SDS011;22913;51.910;8.374;2022-11-23T05:32:16;4.53;;;1.73;;
37001;SDS011;22913;51.910;8.374;2022-11-23T05:35:01;3.00;;;1.40;;
37001;SDS011;22913;51.910;8.374;2022-11-23T05:37:47;4.43;;;1.73;;
37001;SDS011;22913;51.910;8.374;2022-11-23T05:40:33;2.73;;;2.07;;
37001;SDS011;22913;51.910;8.374;2022-11-23T05:43:19;4.10;;;1.67;;
37001;SDS011;22913;51.910;8.374;2022-11-23T05:46:06;4.23;;;1.77;;
37001;SDS011;22913;51.910;8.374;2022-11-23T05:48:51;5.23;;;1.80;;
37001;SDS011;22913;51.910;8.374;2022-11-23T05:51:37;5.40;;;1.70;;
37001;SDS011;22913;51.910;8.374;2022-11-23T05:54:23;6.03;;;2.13;;
37001;SDS011;22913;51.910;8.374;2022-11-23T05:57:08;2.37;;;1.37;;
37001;SDS011;22913;51.910;8.374;2022-11-23T05:59:55;3.83;;;1.90;;
37001;SDS011;22913;51.910;8.374;2022-11-23T06:02:42;4.73;;;1.57;;
37001;SDS011;22913;51.910;8.374;2022-11-23T06:05:28;4.63;;;1.60;;
37001;SDS011;22913;51.910;8.374;2022-11-23T06:08:14;5.83;;;2.10;;
37001;SDS011;22913;51.910;8.374;2022-11-23T06:11:00;3.90;;;1.80;;
37001;SDS011;22913;51.910;8.374;2022-11-23T06:13:46;4.63;;;1.70;;
37001;SDS011;22913;51.910;8.374;2022-11-23T06:16:32;5.80;;;1.67;;
37001;SDS011;22913;51.910;8.374;2022-11-23T06:19:19;2.73;;;1.67;;
37001;SDS011;22913;51.910;8.374;2022-11-23T06:22:05;5.13;;;2.03;;
37001;SDS011;22913;51.910;8.374;2022-11-23T06:24:53;2.47;;;1.90;;
37001;SDS011;22913;51.910;8.374;2022-11-23T06:27:39;4.80;;;2.00;;
37001;SDS011;22913;51.910;8.374;2022-11-23T06:30:25;5.00;;;3.10;;
37001;SDS011;22913;51.910;8.374;2022-11-23T06:33:11;6.03;;;2.27;;
37001;SDS011;22913;51.910;8.374;2022-11-23T06:35:59;3.40;;;2.10;;
37001;SDS011;22913;51.910;8.374;2022-11-23T06:38:47;5.43;;;2.30;;
37001;SDS011;22913;51.910;8.374;2022-11-23T06:41:33;5.60;;;2.23;;
37001;SDS011;22913;51.910;8.374;2022-11-23T06:44:18;4.60;;;2.07;;
37001;SDS011;22913;51.910;8.374;2022-11-23T06:47:04;3.83;;;1.90;;
37001;SDS011;22913;51.910;8.374;2022-11-23T06:49:50;6.30;;;2.00;;
37001;SDS011;22913;51.910;8.374;2022-11-23T06:52:36;3.87;;;2.27;;
37001;SDS011;22913;51.910;8.374;2022-11-23T06:55:22;5.87;;;2.50;;
37001;SDS011;22913;51.910;8.374;2022-11-23T06:58:08;4.20;;;2.50;;
37001;SDS011;22913;51.910;8.374;2022-11-23T07:00:58;5.87;;;3.50;;
37001;SDS011;22913;51.910;8.374;2022-11-23T07:03:44;8.57;;;4.03;;
37001;SDS011;22913;51.910;8.374;2022-11-23T07:06:29;6.97;;;3.90;;
37001;SDS011;22913;51.910;8.374;2022-11-23T07:09:16;4.77;;;2.63;;
37001;SDS011;22913;51.910;8.374;2022-11-23T07:12:02;5.80;;;2.63;;
37001;SDS011;22913;51.910;8.374;2022-11-23T07:14:48;8.27;;;3.37;;
37001;SDS011;22913;51.910;8.374;2022-11-23T07:17:37;6.53;;;2.80;;
37001;SDS011;22913;51.910;8.374;2022-11-23T07:20:23;5.57;;;2.60;;
37001;SDS011;22913;51.910;8.374;2022-11-23T07:23:09;6.90;;;2.50;;
37001;SDS011;22913;51.910;8.374;2022-11-23T07:25:56;6.23;;;2.53;;
37001;SDS011;22913;51.910;8.374;2022-11-23T07:28:42;5.90;;;2.90;;
37001;SDS011;22913;51.910;8.374;2022-11-23T07:31:28;6.93;;;2.63;;
37001;SDS011;22913;51.910;8.374;2022-11-23T07:34:13;5.83;;;2.80;;
37001;SDS011;22913;51.910;8.374;2022-11-23T07:36:59;5.87;;;2.83;;
37001;SDS011;22913;51.910;8.374;2022-11-23T07:39:46;6.37;;;2.50;;
37001;SDS011;22913;51.910;8.374;2022-11-23T07:42:33;5.20;;;2.50;;
37001;SDS011;22913;51.910;8.374;2022-11-23T07:45:19;8.57;;;3.17;;
37001;SDS011;22913;51.910;8.374;2022-11-23T07:48:07;4.10;;;2.53;;
37001;SDS011;22913;51.910;8.374;2022-11-23T07:50:54;7.10;;;2.90;;
37001;SDS011;22913;51.910;8.374;2022-11-23T07:53:39;6.97;;;2.73;;
37001;SDS011;22913;51.910;8.374;2022-11-23T07:56:25;3.83;;;2.30;;
37001;SDS011;22913;51.910;8.374;2022-11-23T07:59:12;4.90;;;2.47;;
37001;SDS011;22913;51.910;8.374;2022-11-23T08:01:58;6.13;;;2.60;;
37001;SDS011;22913;51.910;8.374;2022-11-23T08:04:43;7.00;;;3.13;;
37001;SDS011;22913;51.910;8.374;2022-11-23T08:07:29;6.30;;;2.77;;
37001;SDS011;22913;51.910;8.374;2022-11-23T08:10:14;5.90;;;2.73;;
37001;SDS011;22913;51.910;8.374;2022-11-23T08:13:00;7.10;;;3.03;;
37001;SDS011;22913;51.910;8.374;2022-11-23T08:15:49;5.10;;;2.43;;
37001;SDS011;22913;51.910;8.374;2022-11-23T08:18:35;5.57;;;3.40;;
37001;SDS011;22913;51.910;8.374;2022-11-23T08:21:20;9.63;;;3.63;;
37001;SDS011;22913;51.910;8.374;2022-11-23T08:24:06;9.00;;;3.30;;
37001;SDS011;22913;51.910;8.374;2022-11-23T08:26:52;9.00;;;2.90;;
37001;SDS011;22913;51.910;8.374;2022-11-23T08:29:37;5.67;;;2.50;;
37001;SDS011;22913;51.910;8.374;2022-11-23T08:32:24;4.57;;;2.33;;
37001;SDS011;22913;51.910;8.374;2022-11-23T08:35:10;5.80;;;2.30;;
37001;SDS011;22913;51.910;8.374;2022-11-23T08:37:55;4.77;;;2.30;;
37001;SDS011;22913;51.910;8.374;2022-11-23T08:40:41;5.43;;;1.90;;
37001;SDS011;22913;51.910;8.374;2022-11-23T08:43:26;5.00;;;2.27;;
37001;SDS011;22913;51.910;8.374;2022-11-23T08:46:12;3.33;;;1.93;;
37001;SDS011;22913;51.910;8.374;2022-11-23T08:49:00;4.20;;;1.90;;
37001;SDS011;22913;51.910;8.374;2022-11-23T08:51:45;2.27;;;1.63;;
37001;SDS011;22913;51.910;8.374;2022-11-23T08:54:31;4.30;;;2.00;;
37001;SDS011;22913;51.910;8.374;2022-11-23T08:57:16;2.57;;;1.83;;
37001;SDS011;22913;51.910;8.374;2022-11-23T09:00:02;3.47;;;1.80;;
37001;SDS011;22913;51.910;8.374;2022-11-23T09:02:49;3.77;;;2.00;;
37001;SDS011;22913;51.910;8.374;2022-11-23T09:05:37;4.27;;;2.13;;
37001;SDS011;22913;51.910;8.374;2022-11-23T09:08:22;3.87;;;2.10;;
37001;SDS011;22913;51.910;8.374;2022-11-23T09:11:09;3.77;;;2.00;;
37001;SDS011;22913;51.910;8.374;2022-11-23T09:13:56;3.37;;;1.80;;
37001;SDS011;22913;51.910;8.374;2022-11-23T09:16:42;3.20;;;1.57;;
37001;SDS011;22913;51.910;8.374;2022-11-23T09:19:28;5.83;;;2.10;;
37001;SDS011;22913;51.910;8.374;2022-11-23T09:22:15;5.70;;;2.20;;
37001;SDS011;22913;51.910;8.374;2022-11-23T09:25:00;5.63;;;2.23;;
37001;SDS011;22913;51.910;8.374;2022-11-23T09:27:45;4.67;;;1.97;;
37001;SDS011;22913;51.910;8.374;2022-11-23T09:30:31;5.13;;;1.90;;
37001;SDS011;22913;51.910;8.374;2022-11-23T09:33:18;4.57;;;1.90;;
37001;SDS011;22913;51.910;8.374;2022-11-23T09:36:04;3.07;;;1.83;;
37001;SDS011;22913;51.910;8.374;2022-11-23T09:38:51;3.37;;;1.60;;
37001;SDS011;22913;51.910;8.374;2022-11-23T09:45:01;5.50;;;2.30;;
37001;SDS011;22913;51.910;8.374;2022-11-23T09:47:58;3.80;;;1.50;;
37001;SDS011;22913;51.910;8.374;2022-11-23T09:50:58;2.63;;;1.47;;
37001;SDS011;22913;51.910;8.374;2022-11-23T09:53:48;5.37;;;1.90;;
37001;SDS011;22913;51.910;8.374;2022-11-23T09:56:37;4.97;;;1.53;;
37001;SDS011;22913;51.910;8.374;2022-11-23T09:59:29;2.83;;;1.70;;
37001;SDS011;22913;51.910;8.374;2022-11-23T10:02:21;3.77;;;1.60;;
37001;SDS011;22913;51.910;8.374;2022-11-23T10:05:09;3.40;;;1.60;;
37001;SDS011;22913;51.910;8.374;2022-11-23T10:08:03;5.77;;;2.00;;
37001;SDS011;22913;51.910;8.374;2022-11-23T10:10:59;5.27;;;1.73;;
37001;SDS011;22913;51.910;8.374;2022-11-23T10:13:56;5.80;;;2.40;;
37001;SDS011;22913;51.910;8.374;2022-11-23T10:16:53;4.73;;;1.87;;
37001;SDS011;22913;51.910;8.374;2022-11-23T10:19:49;4.60;;;2.20;;
37001;SDS011;22913;51.910;8.374;2022-11-23T10:22:47;5.03;;;1.77;;
37001;SDS011;22913;51.910;8.374;2022-11-23T10:25:40;2.87;;;1.83;;
37001;SDS011;22913;51.910;8.374;2022-11-23T10:28:32;4.00;;;1.80;;
37001;SDS011;22913;51.910;8.374;2022-11-23T10:31:19;3.87;;;1.53;;
37001;SDS011;22913;51.910;8.374;2022-11-23T10:34:07;5.53;;;1.97;;
37001;SDS011;22913;51.910;8.374;2022-11-23T10:36:54;5.20;;;1.80;;
37001;SDS011;22913;51.910;8.374;2022-11-23T10:39:40;4.83;;;2.00;;
37001;SDS011;22913;51.910;8.374;2022-11-23T10:42:28;9.50;;;2.13;;
37001;SDS011;22913;51.910;8.374;2022-11-23T10:45:22;4.53;;;1.70;;
37001;SDS011;22913;51.910;8.374;2022-11-23T10:48:11;3.93;;;1.67;;
37001;SDS011;22913;51.910;8.374;2022-11-23T10:51:01;5.73;;;1.70;;
37001;SDS011;22913;51.910;8.374;2022-11-23T10:54:00;2.13;;;1.63;;
37001;SDS011;22913;51.910;8.374;2022-11-23T10:56:52;6.13;;;2.00;;
37001;SDS011;22913;51.910;8.374;2022-11-23T10:59:38;4.60;;;1.87;;
37001;SDS011;22913;51.910;8.374;2022-11-23T11:02:25;5.57;;;2.20;;
37001;SDS011;22913;51.910;8.374;2022-11-23T11:05:20;4.97;;;2.23;;
37001;SDS011;22913;51.910;8.374;2022-11-23T11:08:14;4.97;;;2.10;;
37001;SDS011;22913;51.910;8.374;2022-11-23T11:11:02;5.53;;;2.53;;
37001;SDS011;22913;51.910;8.374;2022-11-23T11:13:49;5.37;;;2.30;;
37001;SDS011;22913;51.910;8.374;2022-11-23T11:16:35;4.73;;;2.73;;
37001;SDS011;22913;51.910;8.374;2022-11-23T11:19:33;5.10;;;2.30;;
37001;SDS011;22913;51.910;8.374;2022-11-23T11:22:24;4.97;;;2.50;;
37001;SDS011;22913;51.910;8.374;2022-11-23T11:25:24;5.93;;;2.10;;
37001;SDS011;22913;51.910;8.374;2022-11-23T11:28:19;7.20;;;3.03;;
37001;SDS011;22913;51.910;8.374;2022-11-23T11:34:34;3.77;;;2.20;;
37001;SDS011;22913;51.910;8.374;2022-11-23T11:37:29;5.10;;;2.60;;
37001;SDS011;22913;51.910;8.374;2022-11-23T11:40:20;4.43;;;2.40;;
37001;SDS011;22913;51.910;8.374;2022-11-23T11:43:10;4.03;;;2.10;;
37001;SDS011;22913;51.910;8.374;2022-11-23T11:46:01;6.70;;;2.47;;
37001;SDS011;22913;51.910;8.374;2022-11-23T11:48:50;4.67;;;2.50;;
37001;SDS011;22913;51.910;8.374;2022-11-23T11:51:40;4.80;;;1.77;;
37001;SDS011;22913;51.910;8.374;2022-11-23T11:54:28;9.60;;;2.40;;
37001;SDS011;22913;51.910;8.374;2022-11-23T11:57:22;4.00;;;1.90;;
37001;SDS011;22913;51.910;8.374;2022-11-23T12:00:12;5.17;;;2.63;;
37001;SDS011;22913;51.910;8.374;2022-11-23T12:03:03;4.00;;;1.97;;
37001;SDS011;22913;51.910;8.374;2022-11-23T12:05:58;6.97;;;2.17;;
37001;SDS011;22913;51.910;8.374;2022-11-23T12:08:49;4.00;;;1.80;;
37001;SDS011;22913;51.910;8.374;2022-11-23T12:11:40;4.33;;;2.30;;
37001;SDS011;22913;51.910;8.374;2022-11-23T12:14:25;3.97;;;2.03;;
37001;SDS011;22913;51.910;8.374;2022-11-23T12:17:16;4.67;;;2.63;;
37001;SDS011;22913;51.910;8.374;2022-11-23T12:20:33;3.63;;;2.10;;
37001;SDS011;22913;51.910;8.374;2022-11-23T12:23:29;5.33;;;1.70;;
37001;SDS011;22913;51.910;8.374;2022-11-23T12:26:25;5.23;;;2.23;;
37001;SDS011;22913;51.910;8.374;2022-11-23T12:29:21;4.97;;;2.17;;
37001;SDS011;22913;51.910;8.374;2022-11-23T12:32:17;3.47;;;1.97;;
37001;SDS011;22913;51.910;8.374;2022-11-23T12:35:15;5.33;;;2.47;;
37001;SDS011;22913;51.910;8.374;2022-11-23T12:38:18;8.07;;;2.70;;
37001;SDS011;22913;51.910;8.374;2022-11-23T12:41:25;4.30;;;2.37;;
37001;SDS011;22913;51.910;8.374;2022-11-23T12:47:44;3.60;;;2.07;;
37001;SDS011;22913;51.910;8.374;2022-11-23T12:50:36;6.23;;;2.67;;
37001;SDS011;22913;51.910;8.374;2022-11-23T12:53:30;4.33;;;2.23;;
37001;SDS011;22913;51.910;8.374;2022-11-23T12:56:29;5.53;;;2.57;;
37001;SDS011;22913;51.910;8.374;2022-11-23T12:59:34;5.97;;;2.20;;
37001;SDS011;22913;51.910;8.374;2022-11-23T13:08:53;4.33;;;2.13;;
37001;SDS011;22913;51.910;8.374;2022-11-23T13:11:54;4.47;;;2.30;;
37001;SDS011;22913;51.910;8.374;2022-11-23T13:14:53;3.57;;;2.30;;
37001;SDS011;22913;51.910;8.374;2022-11-23T13:17:47;5.90;;;2.20;;
37001;SDS011;22913;51.910;8.374;2022-11-23T13:20:47;3.40;;;2.47;;
37001;SDS011;22913;51.910;8.374;2022-11-23T13:23:46;3.97;;;2.23;;
37001;SDS011;22913;51.910;8.374;2022-11-23T13:26:32;6.63;;;2.20;;
37001;SDS011;22913;51.910;8.374;2022-11-23T13:38:46;7.13;;;2.60;;
37001;SDS011;22913;51.910;8.374;2022-11-23T13:44:44;5.50;;;2.30;;
37001;SDS011;22913;51.910;8.374;2022-11-23T13:47:30;4.80;;;2.33;;
37001;SDS011;22913;51.910;8.374;2022-11-23T13:50:16;6.07;;;2.20;;
37001;SDS011;22913;51.910;8.374;2022-11-23T13:53:02;4.13;;;2.20;;
37001;SDS011;22913;51.910;8.374;2022-11-23T13:56:22;5.53;;;1.80;;
37001;SDS011;22913;51.910;8.374;2022-11-23T13:59:24;7.77;;;2.53;;
37001;SDS011;22913;51.910;8.374;2022-11-23T14:02:22;4.27;;;2.97;;
37001;SDS011;22913;51.910;8.374;2022-11-23T14:08:42;3.80;;;1.90;;
37001;SDS011;22913;51.910;8.374;2022-11-23T14:11:29;4.30;;;2.30;;
37001;SDS011;22913;51.910;8.374;2022-11-23T14:14:25;3.97;;;2.00;;
37001;SDS011;22913;51.910;8.374;2022-11-23T14:17:29;6.13;;;2.23;;
37001;SDS011;22913;51.910;8.374;2022-11-23T14:20:38;6.57;;;2.20;;
37001;SDS011;22913;51.910;8.374;2022-11-23T14:27:00;5.43;;;2.20;;
37001;SDS011;22913;51.910;8.374;2022-11-23T14:30:02;5.80;;;2.20;;
37001;SDS011;22913;51.910;8.374;2022-11-23T14:32:53;5.10;;;2.50;;
37001;SDS011;22913;51.910;8.374;2022-11-23T14:35:48;5.80;;;2.37;;
37001;SDS011;22913;51.910;8.374;2022-11-23T14:38:53;5.17;;;2.27;;
37001;SDS011;22913;51.910;8.374;2022-11-23T14:41:48;6.30;;;2.43;;
37001;SDS011;22913;51.910;8.374;2022-11-23T14:44:38;5.23;;;2.73;;
37001;SDS011;22913;51.910;8.374;2022-11-23T14:47:25;6.40;;;2.60;;
37001;SDS011;22913;51.910;8.374;2022-11-23T14:50:22;10.00;;;2.70;;
37001;SDS011;22913;51.910;8.374;2022-11-23T14:53:09;6.33;;;2.53;;
37001;SDS011;22913;51.910;8.374;2022-11-23T14:55:55;6.20;;;2.90;;
37001;SDS011;22913;51.910;8.374;2022-11-23T14:58:41;6.60;;;2.37;;
37001;SDS011;22913;51.910;8.374;2022-11-23T15:01:28;7.00;;;2.43;;
37001;SDS011;22913;51.910;8.374;2022-11-23T15:04:20;4.97;;;2.53;;
37001;SDS011;22913;51.910;8.374;2022-11-23T15:07:09;8.17;;;2.80;;
37001;SDS011;22913;51.910;8.374;2022-11-23T15:10:01;4.45;;;2.50;;
37001;SDS011;22913;51.910;8.374;2022-11-23T15:12:51;5.53;;;2.47;;
37001;SDS011;22913;51.910;8.374;2022-11-23T15:15:37;5.70;;;2.60;;
37001;SDS011;22913;51.910;8.374;2022-11-23T15:18:31;8.60;;;2.83;;
37001;SDS011;22913;51.910;8.374;2022-11-23T15:21:20;8.57;;;3.03;;
37001;SDS011;22913;51.910;8.374;2022-11-23T15:24:17;5.97;;;2.80;;
37001;SDS011;22913;51.910;8.374;2022-11-23T15:38:13;5.50;;;2.10;;
37001;SDS011;22913;51.910;8.374;2022-11-23T15:41:00;9.20;;;3.20;;
37001;SDS011;22913;51.910;8.374;2022-11-23T15:43:51;7.40;;;2.53;;
37001;SDS011;22913;51.910;8.374;2022-11-23T15:46:38;6.43;;;2.50;;
37001;SDS011;22913;51.910;8.374;2022-11-23T15:49:24;8.50;;;2.60;;
37001;SDS011;22913;51.910;8.374;2022-11-23T15:52:11;9.00;;;2.20;;
37001;SDS011;22913;51.910;8.374;2022-11-23T15:55:00;7.45;;;2.50;;
37001;SDS011;22913;51.910;8.374;2022-11-23T15:57:50;3.90;;;2.05;;
37001;SDS011;22913;51.910;8.374;2022-11-23T16:03:28;5.90;;;2.30;;
37001;SDS011;22913;51.910;8.374;2022-11-23T16:06:17;5.70;;;2.30;;
37001;SDS011;22913;51.910;8.374;2022-11-23T16:51:47;11.70;;;3.80;;
37001;SDS011;22913;51.910;8.374;2022-11-23T17:00:13;8.60;;;3.30;;
37001;SDS011;22913;51.910;8.374;2022-11-23T17:03:01;6.40;;;2.60;;
37001;SDS011;22913;51.910;8.374;2022-11-23T17:05:47;6.00;;;2.80;;
37001;SDS011;22913;51.910;8.374;2022-11-23T17:22:23;12.80;;;3.60;;
37001;SDS011;22913;51.910;8.374;2022-11-23T17:25:09;6.97;;;2.93;;
37001;SDS011;22913;51.910;8.374;2022-11-23T17:27:55;6.07;;;3.13;;
37001;SDS011;22913;51.910;8.374;2022-11-23T17:30:43;5.33;;;2.77;;
37001;SDS011;22913;51.910;8.374;2022-11-23T17:33:28;7.20;;;3.20;;
37001;SDS011;22913;51.910;8.374;2022-11-23T17:36:15;7.55;;;2.60;;
37001;SDS011;22913;51.910;8.374;2022-11-23T17:39:01;7.95;;;3.10;;
37001;SDS011;22913;51.910;8.374;2022-11-23T17:41:46;7.40;;;2.70;;
37001;SDS011;22913;51.910;8.374;2022-11-23T17:44:32;8.40;;;3.40;;
37001;SDS011;22913;51.910;8.374;2022-11-23T17:47:20;11.00;;;3.60;;
37001;SDS011;22913;51.910;8.374;2022-11-23T17:50:08;7.60;;;3.55;;
37001;SDS011;22913;51.910;8.374;2022-11-23T17:52:57;7.85;;;4.65;;
37001;SDS011;22913;51.910;8.374;2022-11-23T17:55:42;8.95;;;4.00;;
37001;SDS011;22913;51.910;8.374;2022-11-23T17:58:28;10.90;;;4.40;;
37001;SDS011;22913;51.910;8.374;2022-11-23T18:01:14;6.90;;;3.90;;
37001;SDS011;22913;51.910;8.374;2022-11-23T18:04:01;9.23;;;3.73;;
37001;SDS011;22913;51.910;8.374;2022-11-23T18:06:47;7.45;;;3.00;;
37001;SDS011;22913;51.910;8.374;2022-11-23T18:09:34;8.83;;;3.63;;
37001;SDS011;22913;51.910;8.374;2022-11-23T18:12:19;10.73;;;3.83;;
37001;SDS011;22913;51.910;8.374;2022-11-23T18:15:05;7.90;;;3.67;;
37001;SDS011;22913;51.910;8.374;2022-11-23T18:17:52;6.80;;;3.50;;
37001;SDS011;22913;51.910;8.374;2022-11-23T18:20:37;6.60;;;3.00;;
37001;SDS011;22913;51.910;8.374;2022-11-23T18:23:23;6.60;;;3.80;;
37001;SDS011;22913;51.910;8.374;2022-11-23T18:26:14;6.27;;;3.17;;
37001;SDS011;22913;51.910;8.374;2022-11-23T18:29:02;7.27;;;3.57;;
37001;SDS011;22913;51.910;8.374;2022-11-23T18:31:47;9.97;;;3.70;;
37001;SDS011;22913;51.910;8.374;2022-11-23T18:34:33;8.47;;;3.40;;
37001;SDS011;22913;51.910;8.374;2022-11-23T18:37:19;7.73;;;3.70;;
37001;SDS011;22913;51.910;8.374;2022-11-23T18:40:05;6.47;;;3.23;;
37001;SDS011;22913;51.910;8.374;2022-11-23T18:42:52;4.90;;;3.13;;
37001;SDS011;22913;51.910;8.374;2022-11-23T18:45:37;6.13;;;3.17;;
37001;SDS011;22913;51.910;8.374;2022-11-23T18:48:23;6.90;;;3.90;;